createdAt,value
2019-03-26T00:02:22.516Z,95.80
2019-03-26T00:04:50.266Z,95.60
2019-03-26T00:07:18.001Z,95.60
2019-03-26T00:09:45.760Z,95.70
2019-03-26T00:12:13.515Z,95.70
2019-03-26T00:14:41.261Z,95.20
2019-03-26T00:17:09.052Z,95.00
2019-03-26T00:19:36.848Z,95.00
2019-03-26T00:22:04.569Z,94.90
2019-03-26T00:24:32.316Z,95.00
2019-03-26T00:27:00.053Z,94.70
2019-03-26T00:29:27.812Z,94.40
2019-03-26T00:31:55.564Z,94.20
2019-03-26T00:34:23.332Z,94.20
2019-03-26T00:36:51.060Z,94.20
2019-03-26T00:39:18.840Z,93.30
2019-03-26T00:41:46.580Z,93.40
2019-03-26T00:44:14.316Z,93.20
2019-03-26T00:46:42.091Z,93.20
2019-03-26T00:49:09.728Z,93.40
2019-03-26T00:51:37.464Z,93.30
2019-03-26T00:54:05.204Z,93.40
2019-03-26T00:56:32.966Z,93.60
2019-03-26T00:59:00.683Z,93.50
2019-03-26T01:01:28.447Z,93.50
2019-03-26T01:03:56.416Z,93.60
2019-03-26T01:06:24.140Z,93.40
2019-03-26T01:08:52.118Z,93.60
2019-03-26T01:11:19.868Z,93.70
2019-03-26T01:13:47.613Z,93.60
2019-03-26T01:16:15.389Z,93.40
2019-03-26T01:18:43.160Z,93.40
2019-03-26T01:21:10.892Z,93.20
2019-03-26T01:23:38.636Z,93.10
2019-03-26T01:26:06.402Z,93.00
2019-03-26T01:28:34.156Z,93.00
2019-03-26T01:31:02.048Z,93.20
2019-03-26T01:33:29.925Z,93.20
2019-03-26T01:35:57.660Z,93.30
2019-03-26T01:38:25.408Z,93.50
2019-03-26T01:40:53.148Z,93.40
2019-03-26T01:43:20.885Z,93.40
2019-03-26T01:45:48.720Z,93.40
2019-03-26T01:48:16.484Z,93.50
2019-03-26T01:50:44.223Z,93.90
2019-03-26T01:53:11.992Z,93.70
2019-03-26T01:55:39.817Z,93.70
2019-03-26T01:58:07.552Z,93.90
2019-03-26T02:00:35.305Z,94.00
2019-03-26T02:03:03.045Z,94.10
2019-03-26T02:05:30.832Z,93.90
2019-03-26T02:07:58.582Z,93.90
2019-03-26T02:10:26.348Z,93.90
2019-03-26T02:12:54.072Z,93.70
2019-03-26T02:15:27.896Z,94.00
2019-03-26T02:17:55.616Z,94.10
2019-03-26T02:20:23.426Z,94.20
2019-03-26T02:22:51.228Z,94.20
2019-03-26T02:25:19.204Z,94.10
2019-03-26T02:27:46.973Z,94.00
2019-03-26T02:30:14.765Z,93.80
2019-03-26T02:32:42.517Z,93.40
2019-03-26T02:35:18.377Z,93.50
2019-03-26T02:37:40.404Z,93.30
2019-03-26T02:40:08.271Z,93.20
2019-03-26T02:42:36.105Z,92.90
2019-03-26T02:45:04.185Z,93.10
2019-03-26T02:47:31.912Z,93.10
2019-03-26T02:49:59.685Z,93.40
2019-03-26T02:52:27.450Z,93.20
2019-03-26T02:54:55.213Z,93.30
2019-03-26T02:57:22.976Z,93.40
2019-03-26T02:59:50.741Z,93.40
2019-03-26T03:02:18.494Z,93.50
2019-03-26T03:04:46.247Z,93.80
2019-03-26T03:07:14.021Z,93.90
2019-03-26T03:09:41.800Z,93.90
2019-03-26T03:12:09.552Z,94.00
2019-03-26T03:14:37.341Z,94.20
2019-03-26T03:17:05.076Z,94.40
2019-03-26T03:19:32.842Z,94.60
2019-03-26T03:22:00.633Z,94.70
2019-03-26T03:24:28.497Z,94.90
2019-03-26T03:26:56.362Z,95.00
2019-03-26T03:29:24.112Z,94.90
2019-03-26T03:31:51.897Z,95.00
2019-03-26T03:34:19.809Z,94.80
2019-03-26T03:36:47.541Z,94.80
2019-03-26T03:39:15.407Z,94.70
2019-03-26T03:41:43.170Z,94.70
2019-03-26T03:44:10.934Z,94.90
2019-03-26T03:46:39.969Z,94.90
2019-03-26T03:49:08.011Z,94.90
2019-03-26T03:51:37.772Z,94.90
2019-03-26T03:54:07.004Z,94.80
2019-03-26T03:56:36.241Z,94.90
2019-03-26T03:59:05.897Z,95.20
2019-03-26T04:01:33.645Z,95.50
2019-03-26T04:04:01.377Z,95.40
2019-03-26T04:06:29.146Z,95.40
2019-03-26T04:08:56.897Z,95.60
2019-03-26T04:11:24.731Z,95.60
2019-03-26T04:13:52.473Z,95.50
2019-03-26T04:16:20.198Z,95.50
2019-03-26T04:18:47.984Z,95.40
2019-03-26T04:21:15.735Z,95.40
2019-03-26T04:23:43.486Z,95.60
2019-03-26T04:26:11.242Z,95.60
2019-03-26T04:28:39.092Z,95.70
2019-03-26T04:31:06.860Z,95.80
2019-03-26T04:33:34.700Z,96.00
2019-03-26T04:36:02.455Z,95.70
2019-03-26T04:38:30.206Z,95.70
2019-03-26T04:40:57.963Z,95.70
2019-03-26T04:43:25.730Z,96.30
2019-03-26T04:45:53.548Z,96.10
2019-03-26T04:48:21.309Z,96.00
2019-03-26T04:50:49.073Z,95.90
2019-03-26T04:53:16.856Z,95.80
2019-03-26T04:55:44.680Z,95.90
2019-03-26T04:58:24.157Z,95.90
2019-03-26T05:00:51.889Z,95.70
2019-03-26T05:03:19.638Z,95.60
2019-03-26T05:05:47.376Z,95.30
2019-03-26T05:08:15.104Z,95.10
2019-03-26T05:10:42.868Z,95.00
2019-03-26T05:13:10.617Z,95.10
2019-03-26T05:15:38.361Z,95.30
2019-03-26T05:18:06.248Z,95.20
2019-03-26T05:20:34.008Z,95.30
2019-03-26T05:23:01.752Z,95.30
2019-03-26T05:25:29.643Z,95.20
2019-03-26T05:27:57.388Z,95.40
2019-03-26T05:30:25.168Z,95.50
2019-03-26T05:32:53.013Z,95.60
2019-03-26T05:35:20.787Z,95.40
2019-03-26T05:37:48.508Z,95.40
2019-03-26T05:40:16.265Z,95.70
2019-03-26T05:42:43.972Z,95.50
2019-03-26T05:45:11.912Z,95.70
2019-03-26T05:47:39.676Z,95.80
2019-03-26T05:50:08.171Z,96.10
2019-03-26T05:52:36.372Z,96.10
2019-03-26T05:55:04.960Z,96.00
2019-03-26T05:57:32.691Z,95.90
2019-03-26T06:00:00.575Z,95.80
2019-03-26T06:02:28.338Z,95.70
2019-03-26T06:04:56.120Z,95.90
2019-03-26T06:07:23.851Z,95.80
2019-03-26T06:09:51.628Z,95.80
2019-03-26T06:12:19.380Z,95.60
2019-03-26T06:14:47.129Z,95.40
2019-03-26T06:17:14.949Z,94.80
2019-03-26T06:19:42.724Z,94.40
2019-03-26T06:22:10.448Z,94.00
2019-03-26T06:24:38.235Z,94.30
2019-03-26T06:27:06.196Z,94.20
2019-03-26T06:29:33.966Z,94.40
2019-03-26T06:32:01.734Z,94.50
2019-03-26T06:34:29.486Z,94.50
2019-03-26T06:36:57.204Z,95.50
2019-03-26T06:39:25.072Z,95.60
2019-03-26T06:41:52.812Z,95.70
2019-03-26T06:44:20.585Z,96.10
2019-03-26T06:46:48.349Z,95.80
2019-03-26T06:49:16.116Z,95.50
2019-03-26T06:51:43.855Z,95.40
2019-03-26T06:54:11.592Z,95.40
2019-03-26T06:56:39.477Z,95.20
2019-03-26T06:59:07.224Z,95.20
2019-03-26T07:01:34.950Z,95.40
2019-03-26T07:04:02.884Z,95.30
2019-03-26T07:06:30.620Z,94.90
2019-03-26T07:08:58.372Z,94.80
2019-03-26T07:11:26.104Z,94.70
2019-03-26T07:13:53.866Z,94.50
2019-03-26T07:16:21.616Z,94.10
2019-03-26T07:18:49.455Z,93.80
2019-03-26T07:21:18.204Z,93.90
2019-03-26T07:23:45.997Z,93.80
2019-03-26T07:26:13.766Z,94.00
2019-03-26T07:28:41.522Z,93.90
2019-03-26T07:31:09.267Z,93.20
2019-03-26T07:33:37.044Z,93.60
2019-03-26T07:36:04.764Z,93.30
2019-03-26T07:38:32.512Z,92.90
2019-03-26T07:41:00.295Z,92.50
2019-03-26T07:43:28.057Z,92.00
2019-03-26T07:45:55.817Z,92.10
2019-03-26T07:48:23.562Z,92.30
2019-03-26T07:50:51.300Z,92.40
2019-03-26T07:53:19.093Z,92.50
2019-03-26T07:55:46.890Z,93.40
2019-03-26T07:58:14.657Z,93.70
2019-03-26T08:00:42.428Z,94.40
2019-03-26T08:03:10.276Z,93.50
2019-03-26T08:05:38.032Z,93.90
2019-03-26T08:08:05.801Z,92.80
2019-03-26T08:10:33.650Z,92.90
2019-03-26T08:13:01.614Z,93.60
2019-03-26T08:15:29.552Z,92.80
2019-03-26T08:17:57.373Z,93.90
2019-03-26T08:20:25.104Z,92.00
2019-03-26T08:22:52.947Z,92.20
2019-03-26T08:25:20.682Z,91.60
2019-03-26T08:27:48.435Z,91.80
2019-03-26T08:30:16.296Z,91.80
2019-03-26T08:32:44.042Z,92.30
2019-03-26T08:35:11.984Z,90.50
2019-03-26T08:37:39.738Z,90.50
2019-03-26T08:40:07.624Z,90.10
2019-03-26T08:42:35.364Z,90.20
2019-03-26T08:45:03.640Z,89.40
2019-03-26T08:47:31.392Z,90.30
2019-03-26T08:49:59.125Z,90.50
2019-03-26T08:52:26.876Z,91.00
2019-03-26T08:54:54.624Z,88.30
2019-03-26T08:57:22.470Z,88.70
2019-03-26T08:59:50.265Z,90.00
2019-03-26T09:02:18.037Z,87.30
2019-03-26T09:04:45.896Z,88.00
2019-03-26T09:07:13.629Z,88.10
2019-03-26T09:09:41.396Z,90.20
2019-03-26T09:12:09.124Z,88.10
2019-03-26T09:14:36.876Z,89.00
2019-03-26T09:17:04.644Z,89.40
2019-03-26T09:19:32.500Z,87.70
2019-03-26T09:22:00.268Z,82.70
2019-03-26T09:24:28.033Z,80.00
2019-03-26T09:26:55.774Z,82.60
2019-03-26T09:29:23.520Z,83.40
2019-03-26T09:31:51.288Z,81.60
2019-03-26T09:34:19.033Z,80.90
2019-03-26T09:36:46.781Z,82.20
2019-03-26T09:39:14.566Z,82.20
2019-03-26T09:41:42.663Z,81.10
2019-03-26T09:44:10.412Z,81.60
2019-03-26T09:46:38.199Z,83.50
2019-03-26T09:49:05.956Z,84.50
2019-03-26T09:51:33.709Z,83.10
2019-03-26T09:54:01.468Z,78.50
2019-03-26T09:56:32.069Z,80.30
2019-03-26T09:58:58.846Z,79.60
2019-03-26T10:01:26.588Z,80.10
2019-03-26T10:03:54.472Z,78.00
2019-03-26T10:06:23.587Z,78.40
2019-03-26T10:08:52.985Z,78.40
2019-03-26T10:11:20.936Z,80.10
2019-03-26T10:13:48.693Z,79.00
2019-03-26T10:16:16.425Z,79.60
2019-03-26T10:18:44.206Z,81.10
2019-03-26T10:21:12.068Z,81.20
2019-03-26T10:23:39.825Z,81.10
2019-03-26T10:26:07.557Z,80.00
2019-03-26T10:28:35.294Z,81.20
2019-03-26T10:31:03.056Z,80.40
2019-03-26T10:33:30.834Z,79.60
2019-03-26T10:35:58.612Z,80.30
2019-03-26T10:38:26.368Z,81.70
2019-03-26T10:40:54.127Z,83.20
2019-03-26T10:43:21.885Z,83.30
2019-03-26T10:45:49.628Z,83.00
2019-03-26T10:48:17.416Z,81.20
2019-03-26T10:50:45.298Z,80.70
2019-03-26T10:53:13.060Z,80.20
2019-03-26T10:55:40.892Z,81.20
2019-03-26T10:58:08.651Z,79.90
2019-03-26T11:00:36.384Z,77.80
2019-03-26T11:03:04.245Z,78.10
2019-03-26T11:05:32.074Z,78.00
2019-03-26T11:07:59.856Z,76.30
2019-03-26T11:10:27.585Z,76.40
2019-03-26T11:12:55.351Z,78.40
2019-03-26T11:15:23.199Z,80.30
2019-03-26T11:17:50.973Z,79.30
2019-03-26T11:20:18.828Z,79.30
2019-03-26T11:22:46.618Z,78.70
2019-03-26T11:25:14.763Z,79.40
2019-03-26T11:27:42.524Z,79.40
2019-03-26T11:30:11.433Z,78.90
2019-03-26T11:32:39.198Z,78.40
2019-03-26T11:35:08.068Z,78.90
2019-03-26T11:37:35.835Z,76.30
2019-03-26T11:40:04.168Z,74.20
2019-03-26T11:42:31.917Z,74.10
2019-03-26T11:44:59.660Z,75.20
2019-03-26T11:47:27.531Z,77.20
2019-03-26T11:49:55.297Z,77.60
2019-03-26T11:52:23.121Z,74.30
2019-03-26T11:54:50.977Z,74.90
2019-03-26T11:57:18.841Z,72.60
2019-03-26T11:59:46.597Z,72.50
2019-03-26T12:02:14.469Z,69.80
2019-03-26T12:04:42.375Z,71.90
2019-03-26T12:07:10.122Z,72.90
2019-03-26T12:09:46.215Z,73.50
2019-03-26T12:12:07.544Z,75.30
2019-03-26T12:14:35.409Z,74.70
2019-03-26T12:17:03.160Z,75.30
2019-03-26T12:19:31.056Z,73.60
2019-03-26T12:21:58.881Z,74.70
2019-03-26T12:24:26.771Z,74.60
2019-03-26T12:26:54.545Z,74.20
2019-03-26T12:29:22.296Z,74.60
2019-03-26T12:31:50.061Z,75.80
2019-03-26T12:34:17.817Z,75.30
2019-03-26T12:36:45.601Z,75.90
2019-03-26T12:39:13.496Z,74.60
2019-03-26T12:41:41.513Z,76.10
2019-03-26T12:44:09.303Z,74.50
2019-03-26T12:46:37.137Z,73.90
2019-03-26T12:49:04.891Z,74.50
2019-03-26T12:51:32.670Z,72.10
2019-03-26T12:54:00.408Z,74.50
2019-03-26T12:56:28.224Z,72.20
2019-03-26T12:58:55.976Z,72.20
2019-03-26T13:01:23.721Z,71.70
2019-03-26T13:03:51.565Z,68.10
2019-03-26T13:06:19.486Z,68.90
2019-03-26T13:08:47.321Z,65.40
2019-03-26T13:11:17.083Z,67.30
2019-03-26T13:13:44.758Z,69.40
2019-03-26T13:16:12.650Z,72.10
2019-03-26T13:18:40.397Z,73.80
2019-03-26T13:21:08.145Z,73.40
2019-03-26T13:23:36.092Z,73.90
2019-03-26T13:26:03.844Z,73.10
2019-03-26T13:28:31.608Z,73.70
2019-03-26T13:30:59.557Z,71.50
2019-03-26T13:33:27.361Z,71.10
2019-03-26T13:35:55.228Z,70.60
2019-03-26T13:38:23.002Z,73.50
2019-03-26T13:40:50.765Z,73.10
2019-03-26T13:43:18.529Z,70.90
2019-03-26T13:45:46.253Z,69.90
2019-03-26T13:48:14.072Z,71.40
2019-03-26T13:50:41.813Z,70.50
2019-03-26T13:53:09.689Z,69.00
2019-03-26T13:55:37.660Z,69.30
2019-03-26T13:58:05.545Z,69.40
2019-03-26T14:00:35.153Z,70.40
2019-03-26T14:03:03.216Z,69.40
2019-03-26T14:05:31.053Z,71.00
2019-03-26T14:07:58.844Z,69.20
2019-03-26T14:10:39.846Z,69.90
2019-03-26T14:12:56.631Z,72.60
2019-03-26T14:15:24.357Z,72.00
2019-03-26T14:17:52.108Z,75.30
2019-03-26T14:20:19.971Z,75.30
2019-03-26T14:22:47.860Z,73.10
2019-03-26T14:25:15.620Z,73.60
2019-03-26T14:27:43.369Z,73.40
2019-03-26T14:30:11.838Z,72.60
2019-03-26T14:32:39.617Z,73.10
2019-03-26T14:35:07.774Z,72.10
2019-03-26T14:37:35.635Z,71.90
2019-03-26T14:40:04.034Z,71.80
2019-03-26T14:42:31.898Z,70.00
2019-03-26T14:44:59.633Z,73.00
2019-03-26T14:47:27.753Z,73.90
2019-03-26T14:49:55.505Z,72.60
2019-03-26T14:52:23.273Z,74.00
2019-03-26T14:54:51.209Z,73.10
2019-03-26T14:57:19.000Z,71.60
2019-03-26T14:59:46.765Z,70.90
2019-03-26T15:02:14.558Z,70.60
2019-03-26T15:04:42.327Z,71.80
2019-03-26T15:07:10.101Z,71.00
2019-03-26T15:09:37.865Z,72.90
2019-03-26T15:12:05.718Z,72.20
2019-03-26T15:14:33.500Z,73.40
2019-03-26T15:17:01.241Z,72.50
2019-03-26T15:19:28.989Z,72.70
2019-03-26T15:21:56.720Z,73.00
2019-03-26T15:24:24.574Z,72.40
2019-03-26T15:26:52.413Z,72.80
2019-03-26T15:29:20.201Z,73.50
2019-03-26T15:31:47.949Z,72.90
2019-03-26T15:34:15.713Z,73.70
2019-03-26T15:36:43.445Z,74.10
2019-03-26T15:39:11.189Z,74.60
2019-03-26T15:41:38.937Z,74.70
2019-03-26T15:44:06.677Z,75.00
2019-03-26T15:46:36.447Z,76.20
2019-03-26T15:49:04.181Z,74.90
2019-03-26T15:51:31.976Z,73.90
2019-03-26T15:53:59.865Z,73.90
2019-03-26T15:56:27.617Z,75.00
2019-03-26T15:58:55.352Z,74.90
2019-03-26T16:01:24.467Z,74.40
2019-03-26T16:03:52.759Z,74.80
2019-03-26T16:06:20.628Z,73.90
2019-03-26T16:08:48.353Z,74.70
2019-03-26T16:11:16.217Z,73.20
2019-03-26T16:13:43.956Z,74.00
2019-03-26T16:16:11.693Z,73.50
2019-03-26T16:18:39.456Z,73.90
2019-03-26T16:21:07.188Z,74.70
2019-03-26T16:23:34.941Z,75.10
2019-03-26T16:26:02.684Z,75.40
2019-03-26T16:28:30.533Z,74.80
2019-03-26T16:30:58.486Z,74.90
2019-03-26T16:33:26.412Z,74.80
2019-03-26T16:35:54.152Z,75.40
2019-03-26T16:38:21.904Z,76.30
2019-03-26T16:40:49.749Z,76.20
2019-03-26T16:43:17.444Z,76.20
2019-03-26T16:45:45.292Z,76.30
2019-03-26T16:48:13.070Z,76.40
2019-03-26T16:50:40.800Z,76.90
2019-03-26T16:53:08.554Z,77.00
2019-03-26T16:55:36.497Z,76.70
2019-03-26T16:58:04.255Z,76.30
2019-03-26T17:00:33.158Z,76.40
2019-03-26T17:03:01.218Z,76.30
2019-03-26T17:05:29.378Z,77.10
2019-03-26T17:07:57.199Z,77.30
2019-03-26T17:10:24.944Z,78.20
2019-03-26T17:12:52.740Z,77.60
2019-03-26T17:15:20.691Z,78.20
2019-03-26T17:17:48.448Z,78.30
2019-03-26T17:20:16.189Z,78.60
2019-03-26T17:22:44.273Z,78.50
2019-03-26T17:25:12.138Z,78.70
2019-03-26T17:27:39.889Z,78.90
2019-03-26T17:30:08.245Z,79.10
2019-03-26T17:32:35.988Z,78.80
2019-03-26T17:35:03.829Z,79.70
2019-03-26T17:37:31.612Z,80.50
2019-03-26T17:39:59.371Z,81.80
2019-03-26T17:42:27.299Z,81.30
2019-03-26T17:44:58.258Z,81.20
2019-03-26T17:47:24.757Z,80.80
2019-03-26T17:49:52.507Z,81.30
2019-03-26T17:52:20.248Z,81.50
2019-03-26T17:54:48.159Z,81.70
2019-03-26T17:57:15.912Z,81.50
2019-03-26T17:59:43.685Z,81.20
2019-03-26T18:02:11.557Z,80.60
2019-03-26T18:04:39.299Z,80.70
2019-03-26T18:07:07.265Z,80.80
2019-03-26T18:09:35.038Z,80.60
2019-03-26T18:12:02.988Z,79.90
2019-03-26T18:14:30.758Z,79.60
2019-03-26T18:16:58.525Z,79.50
2019-03-26T18:19:26.341Z,78.90
2019-03-26T18:21:54.091Z,78.40
2019-03-26T18:24:21.863Z,79.10
2019-03-26T18:26:49.601Z,78.30
2019-03-26T18:29:17.397Z,78.30
2019-03-26T18:31:45.150Z,77.50
2019-03-26T18:34:12.889Z,77.20
2019-03-26T18:36:40.638Z,77.00
2019-03-26T18:39:08.449Z,77.10
2019-03-26T18:41:36.284Z,77.50
2019-03-26T18:44:04.028Z,76.60
2019-03-26T18:46:31.789Z,76.80
2019-03-26T18:48:59.536Z,77.10
2019-03-26T18:51:27.276Z,76.70
2019-03-26T18:53:55.153Z,76.70
2019-03-26T18:56:23.096Z,76.60
2019-03-26T18:58:50.849Z,77.60
2019-03-26T19:01:18.624Z,76.40
2019-03-26T19:03:46.393Z,76.50
2019-03-26T19:06:14.174Z,76.80
2019-03-26T19:08:42.048Z,76.50
2019-03-26T19:11:09.785Z,76.60
2019-03-26T19:13:37.568Z,76.20
2019-03-26T19:16:05.312Z,77.20
2019-03-26T19:18:33.113Z,76.40
2019-03-26T19:21:02.414Z,75.90
2019-03-26T19:23:30.792Z,76.10
2019-03-26T19:25:58.533Z,75.90
2019-03-26T19:28:26.276Z,76.00
2019-03-26T19:30:54.037Z,76.00
2019-03-26T19:33:21.796Z,75.80
2019-03-26T19:35:49.560Z,76.20
2019-03-26T19:38:17.313Z,75.90
2019-03-26T19:40:45.041Z,75.20
2019-03-26T19:43:12.789Z,75.70
2019-03-26T19:45:40.545Z,75.60
2019-03-26T19:48:08.318Z,75.90
2019-03-26T19:50:36.168Z,76.40
2019-03-26T19:53:04.034Z,76.50
2019-03-26T19:55:31.772Z,76.00
2019-03-26T19:57:59.542Z,75.90
2019-03-26T20:00:27.286Z,76.20
2019-03-26T20:02:55.085Z,76.20
2019-03-26T20:05:23.036Z,76.50
2019-03-26T20:07:50.888Z,77.60
2019-03-26T20:10:18.827Z,77.30
2019-03-26T20:12:46.685Z,77.20
2019-03-26T20:15:15.227Z,77.70
2019-03-26T20:17:43.120Z,78.00
2019-03-26T20:20:13.393Z,77.80
2019-03-26T20:22:41.136Z,77.70
2019-03-26T20:25:09.280Z,77.90
2019-03-26T20:27:37.029Z,77.70
2019-03-26T20:30:05.874Z,77.60
2019-03-26T20:32:33.613Z,77.80
2019-03-26T20:35:02.724Z,77.70
2019-03-26T20:37:30.553Z,77.80
2019-03-26T20:39:58.310Z,78.00
2019-03-26T20:42:26.172Z,78.20
2019-03-26T20:44:54.021Z,78.00
2019-03-26T20:47:21.762Z,78.00
2019-03-26T20:49:49.496Z,78.00
2019-03-26T20:52:17.335Z,77.20
2019-03-26T20:54:45.192Z,77.80
2019-03-26T20:57:13.141Z,77.70
2019-03-26T20:59:41.214Z,77.80
2019-03-26T21:02:09.074Z,77.90
2019-03-26T21:04:36.830Z,77.50
2019-03-26T21:07:04.671Z,77.60
2019-03-26T21:09:32.421Z,77.80
2019-03-26T21:12:00.505Z,78.00
2019-03-26T21:14:28.364Z,78.00
2019-03-26T21:16:56.204Z,78.30
2019-03-26T21:19:24.048Z,78.30
2019-03-26T21:21:53.111Z,78.30
2019-03-26T21:24:21.124Z,78.80
2019-03-26T21:26:48.913Z,78.80
2019-03-26T21:29:16.682Z,78.90
2019-03-26T21:31:44.416Z,78.80
2019-03-26T21:34:12.176Z,79.10
2019-03-26T21:36:40.121Z,79.20
2019-03-26T21:39:07.979Z,79.60
2019-03-26T21:41:35.739Z,79.40
2019-03-26T21:44:04.766Z,79.60
2019-03-26T21:46:32.889Z,80.00
2019-03-26T21:49:00.732Z,79.60
2019-03-26T21:51:28.488Z,80.00
2019-03-26T21:53:56.238Z,80.00
2019-03-26T21:56:23.992Z,80.00
2019-03-26T21:58:51.757Z,80.50
2019-03-26T22:01:19.488Z,80.20
2019-03-26T22:03:47.233Z,80.00
2019-03-26T22:06:14.985Z,80.60
2019-03-26T22:08:42.735Z,80.20
2019-03-26T22:11:10.480Z,80.30
2019-03-26T22:13:38.354Z,80.10
2019-03-26T22:16:06.096Z,80.10
2019-03-26T22:18:33.874Z,80.80
2019-03-26T22:21:02.121Z,80.90
2019-03-26T22:23:30.002Z,81.20
2019-03-26T22:25:57.789Z,81.10
2019-03-26T22:28:25.554Z,81.50
2019-03-26T22:30:53.298Z,81.60
2019-03-26T22:33:21.030Z,81.60
2019-03-26T22:35:48.829Z,82.20
2019-03-26T22:38:16.557Z,82.40
2019-03-26T22:40:44.520Z,82.90
2019-03-26T22:43:12.271Z,82.90
2019-03-26T22:45:40.037Z,83.10
2019-03-26T22:48:07.772Z,83.50
2019-03-26T22:50:35.516Z,84.60
2019-03-26T22:53:03.269Z,85.00
2019-03-26T22:55:31.017Z,85.30
2019-03-26T22:57:58.766Z,85.60
2019-03-26T23:00:29.004Z,85.90
2019-03-26T23:02:56.848Z,86.00
2019-03-26T23:05:24.587Z,86.20
2019-03-26T23:07:52.349Z,86.30
2019-03-26T23:10:20.209Z,86.10
2019-03-26T23:12:47.979Z,85.90
2019-03-26T23:15:18.948Z,86.20
2019-03-26T23:17:46.804Z,86.50
2019-03-26T23:20:14.640Z,87.00
2019-03-26T23:22:42.409Z,86.90
2019-03-26T23:25:10.208Z,87.20
2019-03-26T23:27:37.956Z,87.40
2019-03-26T23:30:06.068Z,87.40
2019-03-26T23:32:33.813Z,87.40
2019-03-26T23:35:01.684Z,88.00
2019-03-26T23:37:29.440Z,87.70
2019-03-26T23:39:57.211Z,88.00
2019-03-26T23:42:24.974Z,87.90
2019-03-26T23:44:58.307Z,88.20
2019-03-26T23:47:22.448Z,88.30
2019-03-26T23:49:50.188Z,88.90
2019-03-26T23:52:17.953Z,88.40
2019-03-26T23:54:45.715Z,88.80
2019-03-26T23:57:13.447Z,89.10
2019-03-26T23:59:41.189Z,89.80
